sensor_id;sensor_type;location;lat;lon;timestamp;P1;durP1;ratioP1;P2;durP2;ratioP2
84864;SDS011;75122;41.650;25.368;2024-02-26T00:00:26;11.00;;;5.47;;
84864;SDS011;75122;41.650;25.368;2024-02-26T00:02:53;11.35;;;5.20;;
84864;SDS011;75122;41.650;25.368;2024-02-26T00:05:19;8.35;;;5.53;;
84864;SDS011;75122;41.650;25.368;2024-02-26T00:07:44;11.70;;;6.20;;
84864;SDS011;75122;41.650;25.368;2024-02-26T00:10:10;12.77;;;6.45;;
84864;SDS011;75122;41.650;25.368;2024-02-26T00:12:35;12.43;;;6.32;;
84864;SDS011;75122;41.650;25.368;2024-02-26T00:15:01;11.63;;;5.85;;
84864;SDS011;75122;41.650;25.368;2024-02-26T00:17:26;9.73;;;5.60;;
84864;SDS011;75122;41.650;25.368;2024-02-26T00:19:52;11.10;;;5.95;;
84864;SDS011;75122;41.650;25.368;2024-02-26T00:22:18;11.88;;;5.35;;
84864;SDS011;75122;41.650;25.368;2024-02-26T00:24:43;8.05;;;4.82;;
84864;SDS011;75122;41.650;25.368;2024-02-26T00:27:09;10.25;;;5.10;;
84864;SDS011;75122;41.650;25.368;2024-02-26T00:29:34;13.52;;;5.07;;
84864;SDS011;75122;41.650;25.368;2024-02-26T00:32:00;11.10;;;5.60;;
84864;SDS011;75122;41.650;25.368;2024-02-26T00:34:25;10.80;;;5.03;;
84864;SDS011;75122;41.650;25.368;2024-02-26T00:36:50;8.27;;;4.90;;
84864;SDS011;75122;41.650;25.368;2024-02-26T00:39:16;8.15;;;4.70;;
84864;SDS011;75122;41.650;25.368;2024-02-26T00:41:41;9.43;;;4.80;;
84864;SDS011;75122;41.650;25.368;2024-02-26T00:44:07;9.90;;;5.30;;
84864;SDS011;75122;41.650;25.368;2024-02-26T00:46:32;9.90;;;4.70;;
84864;SDS011;75122;41.650;25.368;2024-02-26T00:48:58;9.82;;;5.47;;
84864;SDS011;75122;41.650;25.368;2024-02-26T00:51:23;7.78;;;4.93;;
84864;SDS011;75122;41.650;25.368;2024-02-26T00:53:48;10.13;;;4.93;;
84864;SDS011;75122;41.650;25.368;2024-02-26T00:56:14;7.80;;;4.63;;
84864;SDS011;75122;41.650;25.368;2024-02-26T00:58:39;12.15;;;5.47;;
84864;SDS011;75122;41.650;25.368;2024-02-26T01:01:05;9.30;;;5.20;;
84864;SDS011;75122;41.650;25.368;2024-02-26T01:03:30;11.20;;;5.55;;
84864;SDS011;75122;41.650;25.368;2024-02-26T01:05:56;9.48;;;5.30;;
84864;SDS011;75122;41.650;25.368;2024-02-26T01:08:21;8.90;;;4.85;;
84864;SDS011;75122;41.650;25.368;2024-02-26T01:10:46;10.18;;;5.38;;
84864;SDS011;75122;41.650;25.368;2024-02-26T01:13:12;6.65;;;4.50;;
84864;SDS011;75122;41.650;25.368;2024-02-26T01:15:37;8.57;;;4.32;;
84864;SDS011;75122;41.650;25.368;2024-02-26T01:18:03;7.88;;;4.60;;
84864;SDS011;75122;41.650;25.368;2024-02-26T01:20:28;10.32;;;4.93;;
84864;SDS011;75122;41.650;25.368;2024-02-26T01:22:53;7.95;;;4.65;;
84864;SDS011;75122;41.650;25.368;2024-02-26T01:25:19;11.55;;;4.97;;
84864;SDS011;75122;41.650;25.368;2024-02-26T01:27:44;7.88;;;5.15;;
84864;SDS011;75122;41.650;25.368;2024-02-26T01:30:10;9.60;;;4.90;;
84864;SDS011;75122;41.650;25.368;2024-02-26T01:32:36;9.43;;;4.40;;
84864;SDS011;75122;41.650;25.368;2024-02-26T01:35:02;10.30;;;5.75;;
84864;SDS011;75122;41.650;25.368;2024-02-26T01:37:35;12.50;;;5.35;;
84864;SDS011;75122;41.650;25.368;2024-02-26T01:40:00;8.07;;;4.95;;
84864;SDS011;75122;41.650;25.368;2024-02-26T01:42:28;11.02;;;5.47;;
84864;SDS011;75122;41.650;25.368;2024-02-26T01:44:54;12.52;;;6.05;;
84864;SDS011;75122;41.650;25.368;2024-02-26T01:47:20;11.70;;;5.15;;
84864;SDS011;75122;41.650;25.368;2024-02-26T01:49:45;9.35;;;4.97;;
84864;SDS011;75122;41.650;25.368;2024-02-26T01:52:11;11.20;;;4.90;;
84864;SDS011;75122;41.650;25.368;2024-02-26T01:54:37;10.80;;;4.90;;
84864;SDS011;75122;41.650;25.368;2024-02-26T01:57:03;9.15;;;5.28;;
84864;SDS011;75122;41.650;25.368;2024-02-26T01:59:31;7.88;;;5.07;;
84864;SDS011;75122;41.650;25.368;2024-02-26T02:01:58;14.00;;;5.53;;
84864;SDS011;75122;41.650;25.368;2024-02-26T02:04:26;11.20;;;5.55;;
84864;SDS011;75122;41.650;25.368;2024-02-26T02:06:52;13.90;;;6.05;;
84864;SDS011;75122;41.650;25.368;2024-02-26T02:09:18;11.35;;;5.88;;
84864;SDS011;75122;41.650;25.368;2024-02-26T02:11:44;9.57;;;5.25;;
84864;SDS011;75122;41.650;25.368;2024-02-26T02:14:09;11.93;;;5.90;;
84864;SDS011;75122;41.650;25.368;2024-02-26T02:16:35;8.80;;;5.50;;
84864;SDS011;75122;41.650;25.368;2024-02-26T02:19:01;13.95;;;5.95;;
84864;SDS011;75122;41.650;25.368;2024-02-26T02:21:26;10.88;;;6.50;;
84864;SDS011;75122;41.650;25.368;2024-02-26T02:23:51;15.43;;;6.72;;
84864;SDS011;75122;41.650;25.368;2024-02-26T02:26:17;13.98;;;6.93;;
84864;SDS011;75122;41.650;25.368;2024-02-26T02:28:43;14.57;;;6.95;;
84864;SDS011;75122;41.650;25.368;2024-02-26T02:31:10;10.35;;;6.20;;
84864;SDS011;75122;41.650;25.368;2024-02-26T02:33:36;13.10;;;6.78;;
84864;SDS011;75122;41.650;25.368;2024-02-26T02:36:02;12.07;;;7.43;;
84864;SDS011;75122;41.650;25.368;2024-02-26T02:38:28;12.52;;;6.40;;
84864;SDS011;75122;41.650;25.368;2024-02-26T02:40:55;9.88;;;5.57;;
84864;SDS011;75122;41.650;25.368;2024-02-26T02:43:20;9.63;;;5.20;;
84864;SDS011;75122;41.650;25.368;2024-02-26T02:45:46;8.50;;;5.15;;
84864;SDS011;75122;41.650;25.368;2024-02-26T02:48:11;8.32;;;4.65;;
84864;SDS011;75122;41.650;25.368;2024-02-26T02:50:37;11.43;;;5.75;;
84864;SDS011;75122;41.650;25.368;2024-02-26T02:53:02;10.13;;;6.10;;
84864;SDS011;75122;41.650;25.368;2024-02-26T02:55:28;12.18;;;5.80;;
84864;SDS011;75122;41.650;25.368;2024-02-26T02:57:54;8.20;;;4.68;;
84864;SDS011;75122;41.650;25.368;2024-02-26T03:00:19;10.13;;;5.97;;
84864;SDS011;75122;41.650;25.368;2024-02-26T03:02:45;10.93;;;5.18;;
84864;SDS011;75122;41.650;25.368;2024-02-26T03:05:11;9.40;;;5.68;;
84864;SDS011;75122;41.650;25.368;2024-02-26T03:07:37;7.97;;;5.50;;
84864;SDS011;75122;41.650;25.368;2024-02-26T03:10:02;13.85;;;5.72;;
84864;SDS011;75122;41.650;25.368;2024-02-26T03:12:29;10.23;;;5.85;;
84864;SDS011;75122;41.650;25.368;2024-02-26T03:14:55;10.80;;;5.85;;
84864;SDS011;75122;41.650;25.368;2024-02-26T03:17:20;11.98;;;6.65;;
84864;SDS011;75122;41.650;25.368;2024-02-26T03:19:46;9.98;;;5.80;;
84864;SDS011;75122;41.650;25.368;2024-02-26T03:22:12;14.45;;;6.72;;
84864;SDS011;75122;41.650;25.368;2024-02-26T03:24:38;10.82;;;7.15;;
84864;SDS011;75122;41.650;25.368;2024-02-26T03:27:04;11.20;;;6.70;;
84864;SDS011;75122;41.650;25.368;2024-02-26T03:29:34;13.68;;;6.20;;
84864;SDS011;75122;41.650;25.368;2024-02-26T03:32:00;15.20;;;7.78;;
84864;SDS011;75122;41.650;25.368;2024-02-26T03:34:25;15.80;;;7.22;;
84864;SDS011;75122;41.650;25.368;2024-02-26T03:36:51;13.63;;;5.97;;
84864;SDS011;75122;41.650;25.368;2024-02-26T03:39:17;12.98;;;6.63;;
84864;SDS011;75122;41.650;25.368;2024-02-26T03:41:42;14.00;;;7.00;;
84864;SDS011;75122;41.650;25.368;2024-02-26T03:44:07;11.07;;;6.60;;
84864;SDS011;75122;41.650;25.368;2024-02-26T03:46:33;9.90;;;6.45;;
84864;SDS011;75122;41.650;25.368;2024-02-26T03:48:58;9.68;;;6.45;;
84864;SDS011;75122;41.650;25.368;2024-02-26T03:51:24;10.10;;;6.00;;
84864;SDS011;75122;41.650;25.368;2024-02-26T03:53:49;10.65;;;5.85;;
84864;SDS011;75122;41.650;25.368;2024-02-26T03:56:14;8.48;;;5.60;;
84864;SDS011;75122;41.650;25.368;2024-02-26T03:58:40;11.90;;;5.95;;
84864;SDS011;75122;41.650;25.368;2024-02-26T04:01:08;10.27;;;5.80;;
84864;SDS011;75122;41.650;25.368;2024-02-26T04:03:34;8.90;;;5.63;;
84864;SDS011;75122;41.650;25.368;2024-02-26T04:06:00;9.35;;;5.38;;
84864;SDS011;75122;41.650;25.368;2024-02-26T04:08:26;30.40;;;16.05;;
84864;SDS011;75122;41.650;25.368;2024-02-26T04:10:51;30.27;;;17.27;;
84864;SDS011;75122;41.650;25.368;2024-02-26T04:13:17;12.18;;;7.45;;
84864;SDS011;75122;41.650;25.368;2024-02-26T04:15:43;14.23;;;8.95;;
84864;SDS011;75122;41.650;25.368;2024-02-26T04:18:08;18.95;;;8.25;;
84864;SDS011;75122;41.650;25.368;2024-02-26T04:20:34;21.17;;;7.85;;
84864;SDS011;75122;41.650;25.368;2024-02-26T04:22:59;15.88;;;7.40;;
84864;SDS011;75122;41.650;25.368;2024-02-26T04:25:24;15.93;;;7.57;;
84864;SDS011;75122;41.650;25.368;2024-02-26T04:27:50;20.50;;;9.10;;
84864;SDS011;75122;41.650;25.368;2024-02-26T04:30:15;16.85;;;9.25;;
84864;SDS011;75122;41.650;25.368;2024-02-26T04:32:42;21.35;;;12.02;;
84864;SDS011;75122;41.650;25.368;2024-02-26T04:35:07;16.15;;;9.80;;
84864;SDS011;75122;41.650;25.368;2024-02-26T04:37:33;14.00;;;7.57;;
84864;SDS011;75122;41.650;25.368;2024-02-26T04:39:59;13.23;;;6.72;;
84864;SDS011;75122;41.650;25.368;2024-02-26T04:42:25;15.73;;;7.63;;
84864;SDS011;75122;41.650;25.368;2024-02-26T04:44:51;14.50;;;7.32;;
84864;SDS011;75122;41.650;25.368;2024-02-26T04:47:16;20.83;;;9.63;;
84864;SDS011;75122;41.650;25.368;2024-02-26T04:49:42;18.83;;;9.55;;
84864;SDS011;75122;41.650;25.368;2024-02-26T04:52:07;21.48;;;9.45;;
84864;SDS011;75122;41.650;25.368;2024-02-26T04:54:33;12.25;;;7.63;;
84864;SDS011;75122;41.650;25.368;2024-02-26T04:56:58;14.85;;;6.97;;
84864;SDS011;75122;41.650;25.368;2024-02-26T04:59:24;16.48;;;10.02;;
84864;SDS011;75122;41.650;25.368;2024-02-26T05:01:49;24.08;;;11.80;;
84864;SDS011;75122;41.650;25.368;2024-02-26T05:04:16;20.67;;;10.10;;
84864;SDS011;75122;41.650;25.368;2024-02-26T05:06:42;17.88;;;9.30;;
84864;SDS011;75122;41.650;25.368;2024-02-26T05:09:07;19.63;;;10.20;;
84864;SDS011;75122;41.650;25.368;2024-02-26T05:11:33;22.42;;;8.85;;
84864;SDS011;75122;41.650;25.368;2024-02-26T05:13:58;15.93;;;8.18;;
84864;SDS011;75122;41.650;25.368;2024-02-26T05:16:25;16.30;;;8.35;;
84864;SDS011;75122;41.650;25.368;2024-02-26T05:18:52;19.77;;;9.88;;
84864;SDS011;75122;41.650;25.368;2024-02-26T05:21:18;13.40;;;7.57;;
84864;SDS011;75122;41.650;25.368;2024-02-26T05:23:43;28.00;;;14.50;;
84864;SDS011;75122;41.650;25.368;2024-02-26T05:26:09;22.85;;;11.18;;
84864;SDS011;75122;41.650;25.368;2024-02-26T05:28:34;17.17;;;9.88;;
84864;SDS011;75122;41.650;25.368;2024-02-26T05:31:00;18.88;;;9.73;;
84864;SDS011;75122;41.650;25.368;2024-02-26T05:33:26;19.92;;;10.43;;
84864;SDS011;75122;41.650;25.368;2024-02-26T05:35:51;20.95;;;11.15;;
84864;SDS011;75122;41.650;25.368;2024-02-26T05:38:17;20.20;;;9.77;;
84864;SDS011;75122;41.650;25.368;2024-02-26T05:40:42;16.75;;;8.40;;
84864;SDS011;75122;41.650;25.368;2024-02-26T05:43:08;10.25;;;6.82;;
84864;SDS011;75122;41.650;25.368;2024-02-26T05:45:33;14.48;;;7.07;;
84864;SDS011;75122;41.650;25.368;2024-02-26T05:47:59;20.95;;;8.52;;
84864;SDS011;75122;41.650;25.368;2024-02-26T05:50:24;17.17;;;9.27;;
84864;SDS011;75122;41.650;25.368;2024-02-26T05:52:50;19.85;;;10.35;;
84864;SDS011;75122;41.650;25.368;2024-02-26T05:55:15;16.50;;;8.32;;
84864;SDS011;75122;41.650;25.368;2024-02-26T05:57:41;15.80;;;8.82;;
84864;SDS011;75122;41.650;25.368;2024-02-26T06:00:06;15.50;;;8.95;;
84864;SDS011;75122;41.650;25.368;2024-02-26T06:02:32;17.70;;;8.88;;
84864;SDS011;75122;41.650;25.368;2024-02-26T06:04:58;72.55;;;19.63;;
84864;SDS011;75122;41.650;25.368;2024-02-26T06:07:24;101.50;;;32.55;;
84864;SDS011;75122;41.650;25.368;2024-02-26T06:09:49;62.35;;;21.83;;
84864;SDS011;75122;41.650;25.368;2024-02-26T06:12:15;27.35;;;11.23;;
84864;SDS011;75122;41.650;25.368;2024-02-26T06:14:44;17.63;;;9.20;;
84864;SDS011;75122;41.650;25.368;2024-02-26T06:17:09;24.58;;;10.05;;
84864;SDS011;75122;41.650;25.368;2024-02-26T06:19:34;18.20;;;10.52;;
84864;SDS011;75122;41.650;25.368;2024-02-26T06:22:00;16.23;;;9.35;;
84864;SDS011;75122;41.650;25.368;2024-02-26T06:24:25;16.75;;;9.82;;
84864;SDS011;75122;41.650;25.368;2024-02-26T06:26:50;32.95;;;14.48;;
84864;SDS011;75122;41.650;25.368;2024-02-26T06:29:16;32.65;;;17.70;;
84864;SDS011;75122;41.650;25.368;2024-02-26T06:31:41;29.08;;;13.40;;
84864;SDS011;75122;41.650;25.368;2024-02-26T06:34:07;27.25;;;14.52;;
84864;SDS011;75122;41.650;25.368;2024-02-26T06:36:32;29.05;;;13.85;;
84864;SDS011;75122;41.650;25.368;2024-02-26T06:38:58;17.40;;;10.98;;
84864;SDS011;75122;41.650;25.368;2024-02-26T06:41:23;16.67;;;9.55;;
84864;SDS011;75122;41.650;25.368;2024-02-26T06:43:55;16.58;;;10.40;;
84864;SDS011;75122;41.650;25.368;2024-02-26T06:46:21;18.15;;;10.25;;
84864;SDS011;75122;41.650;25.368;2024-02-26T06:48:50;17.77;;;10.73;;
84864;SDS011;75122;41.650;25.368;2024-02-26T06:51:16;18.50;;;11.20;;
84864;SDS011;75122;41.650;25.368;2024-02-26T06:53:41;17.27;;;10.05;;
84864;SDS011;75122;41.650;25.368;2024-02-26T06:56:06;21.45;;;12.68;;
84864;SDS011;75122;41.650;25.368;2024-02-26T06:58:32;18.25;;;11.18;;
84864;SDS011;75122;41.650;25.368;2024-02-26T07:00:58;21.70;;;11.30;;
84864;SDS011;75122;41.650;25.368;2024-02-26T07:03:23;20.73;;;10.80;;
84864;SDS011;75122;41.650;25.368;2024-02-26T07:05:50;22.65;;;11.23;;
84864;SDS011;75122;41.650;25.368;2024-02-26T07:08:16;21.77;;;12.15;;
84864;SDS011;75122;41.650;25.368;2024-02-26T07:10:41;18.25;;;11.20;;
84864;SDS011;75122;41.650;25.368;2024-02-26T07:13:07;19.75;;;11.30;;
84864;SDS011;75122;41.650;25.368;2024-02-26T07:15:32;25.35;;;13.48;;
84864;SDS011;75122;41.650;25.368;2024-02-26T07:17:58;25.67;;;11.90;;
84864;SDS011;75122;41.650;25.368;2024-02-26T07:20:28;51.33;;;20.08;;
84864;SDS011;75122;41.650;25.368;2024-02-26T07:22:56;42.90;;;17.90;;
84864;SDS011;75122;41.650;25.368;2024-02-26T07:25:22;28.83;;;14.85;;
84864;SDS011;75122;41.650;25.368;2024-02-26T07:27:49;38.15;;;16.38;;
84864;SDS011;75122;41.650;25.368;2024-02-26T07:30:15;29.67;;;15.90;;
84864;SDS011;75122;41.650;25.368;2024-02-26T07:32:41;28.38;;;16.33;;
84864;SDS011;75122;41.650;25.368;2024-02-26T07:35:07;28.33;;;15.93;;
84864;SDS011;75122;41.650;25.368;2024-02-26T07:37:33;34.75;;;17.58;;
84864;SDS011;75122;41.650;25.368;2024-02-26T07:39:58;36.60;;;20.80;;
84864;SDS011;75122;41.650;25.368;2024-02-26T07:42:24;43.58;;;31.83;;
84864;SDS011;75122;41.650;25.368;2024-02-26T07:44:50;34.15;;;21.77;;
84864;SDS011;75122;41.650;25.368;2024-02-26T07:47:16;38.92;;;19.40;;
84864;SDS011;75122;41.650;25.368;2024-02-26T07:49:41;29.33;;;16.75;;
84864;SDS011;75122;41.650;25.368;2024-02-26T07:52:06;48.70;;;23.02;;
84864;SDS011;75122;41.650;25.368;2024-02-26T07:54:32;38.38;;;17.35;;
84864;SDS011;75122;41.650;25.368;2024-02-26T07:56:57;37.88;;;17.52;;
84864;SDS011;75122;41.650;25.368;2024-02-26T07:59:23;24.92;;;14.73;;
84864;SDS011;75122;41.650;25.368;2024-02-26T08:01:52;26.42;;;14.95;;
84864;SDS011;75122;41.650;25.368;2024-02-26T08:04:18;27.00;;;13.60;;
84864;SDS011;75122;41.650;25.368;2024-02-26T08:06:43;23.25;;;11.73;;
84864;SDS011;75122;41.650;25.368;2024-02-26T08:09:09;27.70;;;14.02;;
84864;SDS011;75122;41.650;25.368;2024-02-26T08:11:34;33.70;;;14.68;;
84864;SDS011;75122;41.650;25.368;2024-02-26T08:14:00;30.73;;;13.85;;
84864;SDS011;75122;41.650;25.368;2024-02-26T08:16:25;26.75;;;14.43;;
84864;SDS011;75122;41.650;25.368;2024-02-26T08:18:51;22.55;;;13.35;;
84864;SDS011;75122;41.650;25.368;2024-02-26T08:21:16;26.33;;;12.23;;
84864;SDS011;75122;41.650;25.368;2024-02-26T08:23:43;20.80;;;12.18;;
84864;SDS011;75122;41.650;25.368;2024-02-26T08:26:08;21.83;;;12.43;;
84864;SDS011;75122;41.650;25.368;2024-02-26T08:28:36;23.00;;;12.43;;
84864;SDS011;75122;41.650;25.368;2024-02-26T08:31:02;22.75;;;12.20;;
84864;SDS011;75122;41.650;25.368;2024-02-26T08:33:28;20.98;;;12.07;;
84864;SDS011;75122;41.650;25.368;2024-02-26T08:35:53;49.72;;;24.38;;
84864;SDS011;75122;41.650;25.368;2024-02-26T08:38:19;22.55;;;11.55;;
84864;SDS011;75122;41.650;25.368;2024-02-26T08:40:44;70.07;;;31.45;;
84864;SDS011;75122;41.650;25.368;2024-02-26T08:43:10;25.80;;;12.82;;
84864;SDS011;75122;41.650;25.368;2024-02-26T08:45:35;26.98;;;12.23;;
84864;SDS011;75122;41.650;25.368;2024-02-26T08:48:00;27.38;;;12.52;;
84864;SDS011;75122;41.650;25.368;2024-02-26T08:50:26;26.33;;;13.68;;
84864;SDS011;75122;41.650;25.368;2024-02-26T08:52:51;20.05;;;12.57;;
84864;SDS011;75122;41.650;25.368;2024-02-26T08:55:18;24.77;;;12.45;;
84864;SDS011;75122;41.650;25.368;2024-02-26T08:57:43;26.05;;;12.50;;
84864;SDS011;75122;41.650;25.368;2024-02-26T09:00:09;28.80;;;12.82;;
84864;SDS011;75122;41.650;25.368;2024-02-26T09:02:35;27.65;;;13.50;;
84864;SDS011;75122;41.650;25.368;2024-02-26T09:05:03;21.40;;;11.30;;
84864;SDS011;75122;41.650;25.368;2024-02-26T09:07:30;23.77;;;10.90;;
84864;SDS011;75122;41.650;25.368;2024-02-26T09:09:56;18.77;;;9.82;;
84864;SDS011;75122;41.650;25.368;2024-02-26T09:12:21;20.95;;;10.82;;
84864;SDS011;75122;41.650;25.368;2024-02-26T09:14:47;21.25;;;11.07;;
84864;SDS011;75122;41.650;25.368;2024-02-26T09:17:12;22.38;;;11.05;;
84864;SDS011;75122;41.650;25.368;2024-02-26T09:19:38;19.95;;;10.90;;
84864;SDS011;75122;41.650;25.368;2024-02-26T09:22:03;20.50;;;10.90;;
84864;SDS011;75122;41.650;25.368;2024-02-26T09:24:29;14.38;;;8.07;;
84864;SDS011;75122;41.650;25.368;2024-02-26T09:26:54;16.05;;;7.88;;
84864;SDS011;75122;41.650;25.368;2024-02-26T09:29:20;24.85;;;11.93;;
84864;SDS011;75122;41.650;25.368;2024-02-26T09:31:45;30.83;;;15.57;;
84864;SDS011;75122;41.650;25.368;2024-02-26T09:34:12;34.55;;;17.70;;
84864;SDS011;75122;41.650;25.368;2024-02-26T09:36:38;31.15;;;15.52;;
84864;SDS011;75122;41.650;25.368;2024-02-26T09:39:04;36.53;;;16.73;;
84864;SDS011;75122;41.650;25.368;2024-02-26T09:41:30;36.03;;;19.25;;
84864;SDS011;75122;41.650;25.368;2024-02-26T09:43:57;32.50;;;17.05;;
84864;SDS011;75122;41.650;25.368;2024-02-26T09:46:25;28.95;;;14.77;;
84864;SDS011;75122;41.650;25.368;2024-02-26T09:48:50;26.88;;;14.18;;
84864;SDS011;75122;41.650;25.368;2024-02-26T09:51:16;29.60;;;15.48;;
84864;SDS011;75122;41.650;25.368;2024-02-26T09:53:43;34.13;;;15.07;;
84864;SDS011;75122;41.650;25.368;2024-02-26T09:56:11;24.98;;;12.45;;
84864;SDS011;75122;41.650;25.368;2024-02-26T09:58:40;28.73;;;11.45;;
84864;SDS011;75122;41.650;25.368;2024-02-26T10:01:10;19.25;;;9.57;;
84864;SDS011;75122;41.650;25.368;2024-02-26T10:03:39;21.85;;;9.73;;
84864;SDS011;75122;41.650;25.368;2024-02-26T10:06:07;21.63;;;8.60;;
84864;SDS011;75122;41.650;25.368;2024-02-26T10:08:33;18.33;;;9.63;;
84864;SDS011;75122;41.650;25.368;2024-02-26T10:11:00;21.02;;;10.10;;
84864;SDS011;75122;41.650;25.368;2024-02-26T10:13:26;17.38;;;9.02;;
84864;SDS011;75122;41.650;25.368;2024-02-26T10:15:51;18.88;;;9.43;;
84864;SDS011;75122;41.650;25.368;2024-02-26T10:18:17;17.70;;;9.27;;
84864;SDS011;75122;41.650;25.368;2024-02-26T10:20:45;18.13;;;8.23;;
84864;SDS011;75122;41.650;25.368;2024-02-26T10:23:25;15.85;;;8.77;;
84864;SDS011;75122;41.650;25.368;2024-02-26T10:25:54;15.65;;;7.72;;
84864;SDS011;75122;41.650;25.368;2024-02-26T10:28:20;12.75;;;7.82;;
84864;SDS011;75122;41.650;25.368;2024-02-26T10:30:45;12.77;;;7.25;;
84864;SDS011;75122;41.650;25.368;2024-02-26T10:33:11;23.75;;;8.05;;
84864;SDS011;75122;41.650;25.368;2024-02-26T10:35:39;16.85;;;8.15;;
84864;SDS011;75122;41.650;25.368;2024-02-26T10:38:06;19.92;;;10.50;;
84864;SDS011;75122;41.650;25.368;2024-02-26T10:40:32;19.48;;;11.18;;
84864;SDS011;75122;41.650;25.368;2024-02-26T10:42:57;21.98;;;12.80;;
84864;SDS011;75122;41.650;25.368;2024-02-26T10:45:23;21.05;;;10.30;;
84864;SDS011;75122;41.650;25.368;2024-02-26T10:47:49;20.40;;;8.35;;
84864;SDS011;75122;41.650;25.368;2024-02-26T10:50:15;13.68;;;7.45;;
84864;SDS011;75122;41.650;25.368;2024-02-26T10:52:42;25.00;;;8.93;;
84864;SDS011;75122;41.650;25.368;2024-02-26T10:55:07;13.15;;;7.20;;
84864;SDS011;75122;41.650;25.368;2024-02-26T10:57:39;13.43;;;7.15;;
84864;SDS011;75122;41.650;25.368;2024-02-26T11:00:05;11.45;;;5.53;;
84864;SDS011;75122;41.650;25.368;2024-02-26T11:02:33;14.07;;;7.50;;
84864;SDS011;75122;41.650;25.368;2024-02-26T11:05:05;11.98;;;5.80;;
84864;SDS011;75122;41.650;25.368;2024-02-26T11:07:31;16.83;;;8.75;;
84864;SDS011;75122;41.650;25.368;2024-02-26T11:10:01;18.17;;;9.18;;
84864;SDS011;75122;41.650;25.368;2024-02-26T11:12:29;17.08;;;8.95;;
84864;SDS011;75122;41.650;25.368;2024-02-26T11:14:55;13.68;;;8.07;;
84864;SDS011;75122;41.650;25.368;2024-02-26T11:17:23;15.70;;;8.07;;
84864;SDS011;75122;41.650;25.368;2024-02-26T11:19:51;16.08;;;7.40;;
84864;SDS011;75122;41.650;25.368;2024-02-26T11:22:20;15.25;;;6.93;;
84864;SDS011;75122;41.650;25.368;2024-02-26T11:24:47;16.48;;;8.00;;
84864;SDS011;75122;41.650;25.368;2024-02-26T11:27:13;14.50;;;6.70;;
84864;SDS011;75122;41.650;25.368;2024-02-26T11:29:50;17.35;;;8.95;;
84864;SDS011;75122;41.650;25.368;2024-02-26T11:32:17;17.23;;;7.28;;
84864;SDS011;75122;41.650;25.368;2024-02-26T11:34:44;19.50;;;8.63;;
84864;SDS011;75122;41.650;25.368;2024-02-26T11:37:10;16.88;;;8.20;;
84864;SDS011;75122;41.650;25.368;2024-02-26T11:39:37;20.00;;;7.97;;
84864;SDS011;75122;41.650;25.368;2024-02-26T11:42:08;13.70;;;7.18;;
84864;SDS011;75122;41.650;25.368;2024-02-26T11:44:34;15.68;;;6.35;;
84864;SDS011;75122;41.650;25.368;2024-02-26T11:47:13;12.20;;;6.15;;
84864;SDS011;75122;41.650;25.368;2024-02-26T11:49:43;12.77;;;6.07;;
84864;SDS011;75122;41.650;25.368;2024-02-26T11:52:08;9.20;;;5.20;;
84864;SDS011;75122;41.650;25.368;2024-02-26T11:54:50;10.40;;;5.93;;
84864;SDS011;75122;41.650;25.368;2024-02-26T11:59:57;27.90;;;7.18;;
84864;SDS011;75122;41.650;25.368;2024-02-26T12:05:30;14.07;;;6.88;;
84864;SDS011;75122;41.650;25.368;2024-02-26T12:08:07;10.82;;;5.30;;
84864;SDS011;75122;41.650;25.368;2024-02-26T12:13:13;16.98;;;6.53;;
84864;SDS011;75122;41.650;25.368;2024-02-26T12:15:41;9.45;;;5.20;;
84864;SDS011;75122;41.650;25.368;2024-02-26T12:18:08;14.23;;;5.40;;
84864;SDS011;75122;41.650;25.368;2024-02-26T12:20:35;13.68;;;6.00;;
84864;SDS011;75122;41.650;25.368;2024-02-26T12:23:04;12.38;;;5.63;;
84864;SDS011;75122;41.650;25.368;2024-02-26T12:25:30;11.23;;;5.00;;
84864;SDS011;75122;41.650;25.368;2024-02-26T12:27:57;15.68;;;5.75;;
84864;SDS011;75122;41.650;25.368;2024-02-26T12:30:23;8.90;;;4.65;;
84864;SDS011;75122;41.650;25.368;2024-02-26T12:32:50;9.00;;;5.47;;
84864;SDS011;75122;41.650;25.368;2024-02-26T12:35:17;7.32;;;4.38;;
84864;SDS011;75122;41.650;25.368;2024-02-26T12:37:43;9.40;;;4.22;;
84864;SDS011;75122;41.650;25.368;2024-02-26T12:40:09;8.30;;;4.13;;
84864;SDS011;75122;41.650;25.368;2024-02-26T12:42:35;9.57;;;4.45;;
84864;SDS011;75122;41.650;25.368;2024-02-26T12:45:08;9.52;;;3.90;;
84864;SDS011;75122;41.650;25.368;2024-02-26T12:47:39;8.27;;;4.32;;
84864;SDS011;75122;41.650;25.368;2024-02-26T12:50:06;8.25;;;4.75;;
84864;SDS011;75122;41.650;25.368;2024-02-26T12:52:36;10.90;;;4.60;;
84864;SDS011;75122;41.650;25.368;2024-02-26T12:55:04;14.00;;;5.07;;
84864;SDS011;75122;41.650;25.368;2024-02-26T12:57:35;7.40;;;4.68;;
84864;SDS011;75122;41.650;25.368;2024-02-26T13:00:03;10.85;;;4.72;;
84864;SDS011;75122;41.650;25.368;2024-02-26T13:02:34;8.57;;;4.38;;
84864;SDS011;75122;41.650;25.368;2024-02-26T13:05:01;8.98;;;5.03;;
84864;SDS011;75122;41.650;25.368;2024-02-26T13:07:28;15.60;;;5.75;;
84864;SDS011;75122;41.650;25.368;2024-02-26T13:09:53;8.90;;;4.28;;
84864;SDS011;75122;41.650;25.368;2024-02-26T13:12:19;15.55;;;6.53;;
84864;SDS011;75122;41.650;25.368;2024-02-26T13:14:45;11.93;;;5.68;;
84864;SDS011;75122;41.650;25.368;2024-02-26T13:17:10;8.85;;;4.25;;
84864;SDS011;75122;41.650;25.368;2024-02-26T13:19:36;14.23;;;4.60;;
84864;SDS011;75122;41.650;25.368;2024-02-26T13:22:05;11.57;;;5.68;;
84864;SDS011;75122;41.650;25.368;2024-02-26T13:24:31;11.35;;;6.28;;
84864;SDS011;75122;41.650;25.368;2024-02-26T13:26:58;12.63;;;6.15;;
84864;SDS011;75122;41.650;25.368;2024-02-26T13:29:23;13.25;;;5.38;;
84864;SDS011;75122;41.650;25.368;2024-02-26T13:31:55;15.05;;;4.80;;
84864;SDS011;75122;41.650;25.368;2024-02-26T13:34:23;17.17;;;10.02;;
84864;SDS011;75122;41.650;25.368;2024-02-26T13:36:50;22.02;;;8.07;;
84864;SDS011;75122;41.650;25.368;2024-02-26T13:39:21;9.40;;;4.25;;
84864;SDS011;75122;41.650;25.368;2024-02-26T13:41:53;18.50;;;6.40;;
84864;SDS011;75122;41.650;25.368;2024-02-26T13:44:19;14.07;;;5.53;;
84864;SDS011;75122;41.650;25.368;2024-02-26T13:46:46;16.42;;;6.25;;
84864;SDS011;75122;41.650;25.368;2024-02-26T13:49:12;10.20;;;5.35;;
84864;SDS011;75122;41.650;25.368;2024-02-26T13:51:38;10.70;;;5.45;;
84864;SDS011;75122;41.650;25.368;2024-02-26T13:54:04;12.13;;;5.80;;
84864;SDS011;75122;41.650;25.368;2024-02-26T13:56:30;9.00;;;4.80;;
84864;SDS011;75122;41.650;25.368;2024-02-26T13:58:56;27.27;;;9.05;;
84864;SDS011;75122;41.650;25.368;2024-02-26T14:01:21;14.30;;;6.85;;
84864;SDS011;75122;41.650;25.368;2024-02-26T14:03:47;14.77;;;6.15;;
84864;SDS011;75122;41.650;25.368;2024-02-26T14:06:13;13.88;;;6.22;;
84864;SDS011;75122;41.650;25.368;2024-02-26T14:08:39;8.93;;;4.30;;
84864;SDS011;75122;41.650;25.368;2024-02-26T14:11:04;10.55;;;5.40;;
84864;SDS011;75122;41.650;25.368;2024-02-26T14:13:31;13.43;;;5.03;;
84864;SDS011;75122;41.650;25.368;2024-02-26T14:15:56;13.38;;;5.15;;
84864;SDS011;75122;41.650;25.368;2024-02-26T14:18:21;7.63;;;4.80;;
84864;SDS011;75122;41.650;25.368;2024-02-26T14:20:47;12.13;;;4.00;;
84864;SDS011;75122;41.650;25.368;2024-02-26T14:23:12;4.47;;;1.67;;